Time;durP1;ratioP1;P1;durP2;ratioP2;P2;SDS_P1;SDS_P2;PMS_P1;PMS_P2;Temp;Humidity;BMP_temperature;BMP_pressure;BME280_temperature;BME280_humidity;BME280_pressure;Samples;Min_cycle;Max_cycle;Signal;HPM_P1;HPM_P2
2024/02/25 00:00:24;;;;;;;14.55;6.55;;;1.80;99.90;;;;;;4993887;28;20124;-90
2024/02/25 00:02:50;;;;;;;12.32;6.03;;;1.70;99.90;;;;;;4992866;28;20080;-88
2024/02/25 00:05:16;;;;;;;16.85;6.72;;;1.70;99.90;;;;;;4995757;28;20034;-86
2024/02/25 00:07:42;;;;;;;21.27;6.57;;;1.70;99.90;;;;;;4979279;28;20121;-87
2024/02/25 00:10:08;;;;;;;15.93;6.32;;;1.60;99.90;;;;;;4978860;28;20125;-87
2024/02/25 00:12:34;;;;;;;11.23;5.43;;;1.60;99.90;;;;;;4979288;28;20059;-87
2024/02/25 00:14:59;;;;;;;12.73;5.72;;;1.50;99.90;;;;;;4986292;28;20030;-87
2024/02/25 00:17:25;;;;;;;11.52;5.47;;;1.50;99.90;;;;;;4979413;28;20117;-86
2024/02/25 00:19:51;;;;;;;15.15;5.50;;;1.50;99.90;;;;;;4979177;28;20472;-87
2024/02/25 00:22:17;;;;;;;14.95;6.38;;;1.50;99.90;;;;;;4978468;28;20123;-86
2024/02/25 00:24:43;;;;;;;18.42;6.00;;;1.50;99.90;;;;;;4992138;28;20129;-88
2024/02/25 00:27:09;;;;;;;16.25;5.95;;;1.50;99.90;;;;;;4994813;28;20035;-87
2024/02/25 00:29:35;;;;;;;12.98;6.40;;;1.40;99.90;;;;;;4978849;28;20034;-87
2024/02/25 00:32:00;;;;;;;12.35;5.35;;;1.40;99.90;;;;;;4978579;28;20113;-86
2024/02/25 00:34:26;;;;;;;14.75;5.55;;;1.40;99.90;;;;;;4984154;28;20026;-91
2024/02/25 00:36:52;;;;;;;14.10;6.50;;;1.40;99.90;;;;;;4994091;28;20489;-88
2024/02/25 00:39:17;;;;;;;14.35;6.65;;;1.40;99.90;;;;;;4978521;28;20026;-86
2024/02/25 00:41:44;;;;;;;16.02;7.25;;;1.30;99.90;;;;;;4978483;28;20045;-88
2024/02/25 00:44:10;;;;;;;19.80;8.70;;;1.30;99.90;;;;;;4978441;28;20039;-88
2024/02/25 00:46:36;;;;;;;17.45;7.75;;;1.30;99.90;;;;;;4975959;28;20413;-89
2024/02/25 00:49:01;;;;;;;12.77;6.15;;;1.20;99.90;;;;;;4975368;28;20114;-88
2024/02/25 00:51:27;;;;;;;13.30;6.13;;;1.10;99.90;;;;;;4975561;28;20031;-87
2024/02/25 00:53:53;;;;;;;15.75;6.63;;;1.00;99.90;;;;;;4974114;28;20039;-88
2024/02/25 00:56:23;;;;;;;16.42;6.38;;;1.00;99.90;;;;;;4982014;28;20031;-89
2024/02/25 00:58:49;;;;;;;14.35;6.60;;;1.10;99.90;;;;;;4977417;28;20023;-89
2024/02/25 01:01:17;;;;;;;14.43;6.63;;;1.10;99.90;;;;;;4979161;28;20030;-88
2024/02/25 01:03:48;;;;;;;26.50;8.15;;;1.10;99.90;;;;;;4977951;28;20689;-88
2024/02/25 01:06:16;;;;;;;10.80;6.43;;;1.10;99.90;;;;;;4987681;28;20036;-88
2024/02/25 01:08:42;;;;;;;18.15;6.53;;;1.10;99.90;;;;;;4977679;28;20049;-88
2024/02/25 01:11:36;;;;;;;18.58;7.00;;;1.10;99.90;;;;;;4944540;28;20106;-89
2024/02/25 01:14:03;;;;;;;17.88;6.80;;;1.10;99.90;;;;;;4959352;28;20396;-88
2024/02/25 01:16:33;;;;;;;11.70;5.97;;;1.10;99.90;;;;;;4960068;28;20102;-88
2024/02/25 01:19:08;;;;;;;16.33;7.13;;;1.00;99.90;;;;;;4960785;28;20182;-88
2024/02/25 01:22:20;;;;;;;16.10;6.55;;;1.00;99.90;;;;;;4959995;28;20125;-87
2024/02/25 01:24:50;;;;;;;18.38;7.10;;;0.90;99.90;;;;;;4944842;28;20096;-90
2024/02/25 01:27:51;;;;;;;13.65;7.75;;;0.90;99.90;;;;;;4995788;28;20030;-88
2024/02/25 01:30:45;;;;;;;13.85;6.43;;;0.90;99.90;;;;;;4977906;28;20034;-88
2024/02/25 01:33:47;;;;;;;14.93;7.32;;;0.80;99.90;;;;;;4978589;28;20144;-89
2024/02/25 01:36:21;;;;;;;21.55;7.43;;;0.80;99.90;;;;;;4981856;28;20042;-89
2024/02/25 01:39:32;;;;;;;15.30;7.38;;;0.80;99.90;;;;;;4976600;28;20019;-88
2024/02/25 01:41:58;;;;;;;;;;;0.80;99.90;;;;;;4943985;28;20085;-89
2024/02/25 01:44:24;;;;;;;17.33;7.45;;;0.90;99.90;;;;;;4976213;28;20331;-87
2024/02/25 01:46:49;;;;;;;16.33;8.00;;;0.90;99.90;;;;;;4975296;28;20035;-87
2024/02/25 01:49:15;;;;;;;15.43;7.78;;;0.90;99.90;;;;;;4975020;28;20031;-88
2024/02/25 01:51:42;;;;;;;14.70;7.28;;;0.80;99.90;;;;;;4977913;28;20019;-88
2024/02/25 01:54:08;;;;;;;19.65;7.93;;;0.80;99.90;;;;;;4978201;28;20052;-88
2024/02/25 01:56:35;;;;;;;25.35;8.10;;;0.80;99.90;;;;;;4978093;28;20026;-88
2024/02/25 01:59:02;;;;;;;16.20;6.90;;;0.90;99.90;;;;;;4977671;28;20121;-88
2024/02/25 02:01:29;;;;;;;17.95;7.85;;;0.80;99.90;;;;;;4977472;28;20116;-87
2024/02/25 02:03:55;;;;;;;16.85;7.60;;;0.80;99.90;;;;;;4979882;28;20114;-87
2024/02/25 02:06:21;;;;;;;18.58;7.78;;;0.80;99.90;;;;;;4973602;28;20074;-88
2024/02/25 02:08:46;;;;;;;22.80;7.53;;;0.70;99.90;;;;;;4974626;28;20082;-87
2024/02/25 02:11:20;;;;;;;17.98;7.85;;;0.60;99.90;;;;;;4975456;28;20401;-90
2024/02/25 02:13:48;;;;;;;20.70;8.50;;;0.60;99.90;;;;;;4974157;28;20039;-87
2024/02/25 02:16:19;;;;;;;21.13;8.20;;;0.60;99.90;;;;;;4976560;28;20026;-87
2024/02/25 02:18:48;;;;;;;19.15;7.05;;;0.60;99.90;;;;;;4974209;28;20044;-87
2024/02/25 02:21:18;;;;;;;19.52;8.10;;;0.60;99.90;;;;;;4965435;28;20030;-87
2024/02/25 02:23:44;;;;;;;18.02;7.75;;;0.50;99.90;;;;;;4973692;28;20030;-87
2024/02/25 02:26:11;;;;;;;17.63;7.57;;;0.50;99.90;;;;;;4974662;28;20106;-88
2024/02/25 02:28:36;;;;;;;19.10;8.55;;;0.50;99.90;;;;;;4973786;28;20094;-87
2024/02/25 02:31:02;;;;;;;19.85;8.20;;;0.50;99.90;;;;;;4975217;28;20042;-89
2024/02/25 02:33:29;;;;;;;25.02;9.07;;;0.50;99.90;;;;;;4955608;28;20492;-88
2024/02/25 02:35:55;;;;;;;22.95;8.77;;;0.50;99.90;;;;;;4957731;28;20019;-87
2024/02/25 02:38:21;;;;;;;24.08;9.77;;;0.50;99.90;;;;;;4973204;28;20506;-87
2024/02/25 02:40:50;;;;;;;31.35;9.93;;;0.40;99.90;;;;;;4945456;28;20487;-88
2024/02/25 02:43:18;;;;;;;25.80;9.70;;;0.40;99.90;;;;;;4977058;28;20488;-88
2024/02/25 02:45:50;;;;;;;27.88;9.60;;;0.40;99.90;;;;;;4993653;28;20073;-88
2024/02/25 02:48:16;;;;;;;30.00;9.35;;;0.40;99.90;;;;;;4976837;28;20430;-87
2024/02/25 02:50:42;;;;;;;31.90;10.02;;;0.40;99.90;;;;;;4976881;28;20045;-88
2024/02/25 02:53:08;;;;;;;31.42;9.90;;;0.30;99.90;;;;;;4973586;28;20386;-87
2024/02/25 02:55:33;;;;;;;31.13;10.70;;;0.30;99.90;;;;;;4976272;28;20037;-87
2024/02/25 02:57:59;;;;;;;46.42;9.98;;;0.30;99.90;;;;;;4977135;28;20022;-88
2024/02/25 03:00:28;;;;;;;48.78;10.68;;;0.30;99.90;;;;;;4976593;28;20026;-88
2024/02/25 03:02:54;;;;;;;51.85;10.15;;;0.30;99.90;;;;;;4976334;28;20077;-88
2024/02/25 03:05:20;;;;;;;105.80;10.95;;;0.30;99.90;;;;;;4976237;28;20472;-88
2024/02/25 03:07:53;;;;;;;66.88;9.32;;;0.20;99.90;;;;;;4973083;28;20496;-88
2024/02/25 03:10:20;;;;;;;53.13;9.40;;;0.20;99.90;;;;;;4974336;28;20031;-88
2024/02/25 03:12:46;;;;;;;60.17;10.50;;;0.20;99.90;;;;;;4973598;28;20027;-88
2024/02/25 03:15:16;;;;;;;56.40;9.98;;;0.20;99.90;;;;;;4976288;28;20121;-88
2024/02/25 03:17:45;;;;;;;47.92;9.77;;;0.20;99.90;;;;;;4973104;28;20035;-87
2024/02/25 03:20:11;;;;;;;75.45;11.55;;;0.20;99.90;;;;;;4963885;28;20034;-88
2024/02/25 03:22:37;;;;;;;110.68;12.10;;;0.20;99.90;;;;;;4962707;28;20054;-87
2024/02/25 03:25:08;;;;;;;44.33;9.23;;;0.10;99.90;;;;;;4973002;28;20481;-87
2024/02/25 03:27:34;;;;;;;46.15;9.55;;;0.10;99.90;;;;;;4973000;28;20086;-87
2024/02/25 03:30:00;;;;;;;28.33;8.60;;;0.10;99.90;;;;;;4972824;28;20054;-87
2024/02/25 03:32:26;;;;;;;46.65;8.80;;;0.10;99.90;;;;;;4972820;28;20481;-88
2024/02/25 03:34:52;;;;;;;43.33;9.05;;;0.10;99.90;;;;;;4976360;28;20430;-87
2024/02/25 03:37:17;;;;;;;47.38;8.43;;;0.10;99.90;;;;;;4993349;28;20030;-87
2024/02/25 03:39:43;;;;;;;96.65;11.40;;;0.10;99.90;;;;;;4976240;28;20038;-88
2024/02/25 03:42:10;;;;;;;44.75;8.43;;;0.10;99.90;;;;;;4988746;28;20087;-87
2024/02/25 03:44:35;;;;;;;55.22;8.38;;;0.00;99.90;;;;;;4976053;28;20046;-88
2024/02/25 03:47:01;;;;;;;56.53;8.52;;;0.00;99.90;;;;;;4975809;28;20032;-88
2024/02/25 03:49:28;;;;;;;32.10;9.15;;;0.00;99.90;;;;;;4976399;28;20045;-88
2024/02/25 03:51:54;;;;;;;25.70;8.52;;;0.00;99.90;;;;;;4975879;28;20369;-87
2024/02/25 03:54:20;;;;;;;61.55;10.95;;;0.00;99.90;;;;;;4976882;28;20030;-87
2024/02/25 03:56:45;;;;;;;50.35;9.60;;;0.00;99.90;;;;;;4960736;28;20463;-87
2024/02/25 03:59:11;;;;;;;42.60;9.75;;;0.00;99.90;;;;;;4976624;28;20451;-87
2024/02/25 04:01:37;;;;;;;31.33;9.10;;;-0.10;99.90;;;;;;4960511;28;20484;-88
2024/02/25 04:04:04;;;;;;;58.85;9.52;;;0.00;99.90;;;;;;4977217;28;20030;-87
2024/02/25 04:06:29;;;;;;;88.47;10.38;;;-0.10;99.90;;;;;;4976914;28;20538;-87
2024/02/25 04:08:55;;;;;;;28.08;8.57;;;0.00;99.90;;;;;;4976823;28;20121;-88
2024/02/25 04:11:21;;;;;;;37.00;10.82;;;-0.10;99.90;;;;;;4976794;28;20408;-88
2024/02/25 04:13:47;;;;;;;37.50;9.82;;;-0.10;99.90;;;;;;4976998;28;20027;-88
2024/02/25 04:16:12;;;;;;;21.35;8.77;;;-0.10;99.90;;;;;;4976847;28;20488;-88
2024/02/25 04:18:38;;;;;;;30.73;9.70;;;-0.10;99.90;;;;;;4977057;28;20034;-88
2024/02/25 04:21:04;;;;;;;76.90;10.77;;;-0.10;99.90;;;;;;4976663;28;20062;-88
2024/02/25 04:23:29;;;;;;;30.88;9.35;;;-0.10;99.90;;;;;;4979776;28;20088;-88
2024/02/25 04:25:55;;;;;;;43.42;10.07;;;-0.10;99.90;;;;;;4979942;28;20035;-87
2024/02/25 04:28:21;;;;;;;32.83;9.82;;;-0.10;99.90;;;;;;4979961;28;20030;-88
2024/02/25 04:30:46;;;;;;;39.42;10.77;;;-0.10;99.90;;;;;;4979442;28;20030;-89
2024/02/25 04:33:12;;;;;;;21.33;10.10;;;-0.10;99.90;;;;;;4979502;28;20037;-88
2024/02/25 04:35:38;;;;;;;37.83;10.32;;;-0.10;99.90;;;;;;4997031;28;20460;-88
2024/02/25 04:38:05;;;;;;;40.28;11.25;;;-0.10;99.90;;;;;;4979245;28;20399;-88
2024/02/25 04:40:31;;;;;;;87.15;11.00;;;-0.10;99.90;;;;;;4997066;28;20038;-88
2024/02/25 04:42:58;;;;;;;65.25;10.43;;;-0.10;99.90;;;;;;4988783;28;20042;-88
2024/02/25 04:45:24;;;;;;;83.78;13.20;;;-0.10;99.90;;;;;;4990940;28;20046;-88
2024/02/25 04:47:52;;;;;;;42.15;9.45;;;-0.10;99.90;;;;;;4990143;28;20041;-89
2024/02/25 04:50:21;;;;;;;59.72;9.80;;;-0.10;99.90;;;;;;4987640;28;20058;-88
2024/02/25 04:52:47;;;;;;;51.55;9.70;;;-0.10;99.90;;;;;;4983940;28;20035;-88
2024/02/25 04:55:13;;;;;;;43.70;8.52;;;0.00;99.90;;;;;;4962497;28;20549;-88
2024/02/25 04:57:39;;;;;;;53.08;10.45;;;-0.10;99.90;;;;;;4961102;28;20026;-88
2024/02/25 05:00:06;;;;;;;70.53;9.38;;;0.00;99.90;;;;;;4961705;28;20042;-88
2024/02/25 05:02:32;;;;;;;113.20;11.20;;;-0.10;99.90;;;;;;4973354;28;20030;-88
2024/02/25 05:04:57;;;;;;;308.55;26.52;;;-0.10;99.90;;;;;;4982105;28;20027;-87
2024/02/25 05:07:23;;;;;;;128.10;11.55;;;-0.10;99.90;;;;;;4978742;28;20053;-89
2024/02/25 05:09:50;;;;;;;209.02;15.27;;;-0.10;99.90;;;;;;4979834;28;20034;-89
2024/02/25 05:12:18;;;;;;;77.85;9.40;;;-0.10;99.90;;;;;;4960499;28;20133;-88
2024/02/25 05:14:43;;;;;;;226.70;21.52;;;-0.20;99.90;;;;;;4979783;28;20484;-88
2024/02/25 05:17:12;;;;;;;128.70;10.18;;;-0.20;99.90;;;;;;4979652;28;20041;-88
2024/02/25 05:19:37;;;;;;;112.30;10.10;;;-0.20;99.90;;;;;;4979123;28;20019;-88
2024/02/25 05:22:03;;;;;;;99.00;9.95;;;-0.20;99.90;;;;;;4996291;28;20117;-88
2024/02/25 05:24:29;;;;;;;101.00;8.70;;;-0.20;99.90;;;;;;4978825;28;20026;-88
2024/02/25 05:26:54;;;;;;;80.95;9.20;;;-0.20;99.90;;;;;;4978661;28;20033;-88
2024/02/25 05:29:21;;;;;;;111.35;9.90;;;-0.20;99.90;;;;;;4996386;28;20030;-88
2024/02/25 05:31:47;;;;;;;69.32;11.93;;;-0.30;99.90;;;;;;4997194;28;20086;-88
2024/02/25 05:34:13;;;;;;;45.05;9.35;;;-0.30;99.90;;;;;;4977547;28;20073;-88
2024/02/25 05:36:38;;;;;;;36.75;9.82;;;-0.30;99.90;;;;;;4963425;28;20026;-88
2024/02/25 05:39:04;;;;;;;93.93;11.65;;;-0.30;99.90;;;;;;4980308;28;20142;-88
2024/02/25 05:41:30;;;;;;;61.60;12.38;;;-0.30;99.90;;;;;;4978173;28;20488;-89
2024/02/25 05:43:56;;;;;;;47.47;9.70;;;-0.30;99.90;;;;;;4963507;28;20156;-89
2024/02/25 05:46:21;;;;;;;65.70;10.35;;;-0.30;99.90;;;;;;4994759;28;20034;-88
2024/02/25 05:48:50;;;;;;;48.17;10.77;;;-0.20;99.90;;;;;;4994589;28;20034;-88
2024/02/25 05:51:16;;;;;;;52.72;9.45;;;-0.30;99.90;;;;;;4994400;28;20430;-88
2024/02/25 05:53:43;;;;;;;146.35;13.77;;;-0.30;99.90;;;;;;4994900;28;20030;-88
2024/02/25 05:56:09;;;;;;;88.20;11.65;;;-0.30;99.90;;;;;;4994271;28;20464;-88
2024/02/25 05:58:36;;;;;;;82.63;10.52;;;-0.40;99.90;;;;;;4994502;28;20038;-88
2024/02/25 06:01:02;;;;;;;99.60;14.27;;;-0.30;99.90;;;;;;4994186;28;20118;-88
2024/02/25 06:03:31;;;;;;;76.85;11.05;;;-0.30;99.90;;;;;;4994145;28;20069;-86
2024/02/25 06:05:57;;;;;;;52.83;9.38;;;-0.40;99.90;;;;;;4994075;28;20030;-88
2024/02/25 06:08:24;;;;;;;128.35;14.25;;;-0.40;99.90;;;;;;4978260;28;20080;-88
2024/02/25 06:10:52;;;;;;;55.60;9.65;;;-0.40;99.90;;;;;;4994159;28;20117;-88
2024/02/25 06:13:18;;;;;;;98.15;9.88;;;-0.40;99.90;;;;;;4993943;28;20118;-88
2024/02/25 06:15:46;;;;;;;75.28;10.60;;;-0.40;99.90;;;;;;4993767;28;20050;-88
2024/02/25 06:18:13;;;;;;;78.00;10.10;;;-0.40;99.90;;;;;;4995377;28;20105;-88
2024/02/25 06:20:39;;;;;;;28.35;9.00;;;-0.40;99.90;;;;;;4993896;28;20085;-88
2024/02/25 06:23:06;;;;;;;83.88;11.07;;;-0.50;99.90;;;;;;4993669;28;20038;-88
2024/02/25 06:25:31;;;;;;;99.80;11.50;;;-0.40;99.90;;;;;;4992974;28;20042;-88
2024/02/25 06:27:57;;;;;;;41.60;9.70;;;-0.50;99.90;;;;;;4994451;28;20022;-88
2024/02/25 06:30:23;;;;;;;63.85;9.00;;;-0.50;99.90;;;;;;4991051;28;20050;-88
2024/02/25 06:32:48;;;;;;;84.70;10.57;;;-0.50;99.90;;;;;;4990223;28;20056;-88
2024/02/25 06:35:15;;;;;;;85.95;11.27;;;-0.50;99.90;;;;;;4990042;28;20071;-88
2024/02/25 06:37:40;;;;;;;64.13;9.23;;;-0.50;99.90;;;;;;4990390;28;20030;-88
2024/02/25 06:40:08;;;;;;;44.80;8.82;;;-0.60;99.90;;;;;;4985429;28;20022;-88
2024/02/25 06:42:34;;;;;;;36.97;8.55;;;-0.60;99.90;;;;;;4993898;28;20066;-89
2024/02/25 06:45:00;;;;;;;81.68;9.40;;;-0.60;99.90;;;;;;4984011;28;20065;-89
2024/02/25 06:50:55;;;;;;;45.80;8.38;;;-0.60;99.90;;;;;;4994532;28;20053;-87
2024/02/25 06:53:41;;;;;;;45.17;8.60;;;-0.60;99.90;;;;;;4976902;28;20042;-87
2024/02/25 06:56:14;;;;;;;41.53;8.02;;;-0.60;99.90;;;;;;4963569;28;20096;-88
2024/02/25 06:58:52;;;;;;;53.67;8.55;;;-0.60;99.90;;;;;;4993891;28;20034;-88
2024/02/25 07:01:24;;;;;;;107.78;10.68;;;-0.60;99.90;;;;;;4991088;28;20034;-86
2024/02/25 07:04:05;;;;;;;;;;;-0.70;99.90;;;;;;4961573;28;20066;-87
2024/02/25 07:06:54;;;;;;;23.27;7.18;;;-0.60;99.90;;;;;;4989001;28;19914;-88
2024/02/25 07:09:45;;;;;;;146.35;14.13;;;-0.70;99.90;;;;;;4974998;28;20180;-87
2024/02/25 07:12:12;;;;;;;46.35;9.32;;;-0.60;99.90;;;;;;4976618;28;20056;-88
2024/02/25 07:14:40;;;;;;;29.73;7.85;;;-0.60;99.90;;;;;;4976322;28;20356;-88
2024/02/25 07:17:07;;;;;;;47.72;8.98;;;-0.60;99.90;;;;;;4976584;28;20022;-88
2024/02/25 07:19:33;;;;;;;69.93;9.30;;;-0.60;99.90;;;;;;4976717;28;20037;-87
2024/02/25 07:21:59;;;;;;;49.90;8.88;;;-0.60;99.90;;;;;;4976810;28;20384;-87
2024/02/25 07:24:25;;;;;;;18.10;7.70;;;-0.70;99.90;;;;;;4970061;28;20023;-88
2024/02/25 07:26:51;;;;;;;14.60;7.20;;;-0.70;99.90;;;;;;4976283;28;20472;-87
2024/02/25 07:29:17;;;;;;;16.00;8.10;;;-0.80;99.90;;;;;;4980197;28;20476;-88
2024/02/25 07:31:43;;;;;;;27.40;8.43;;;-0.80;99.90;;;;;;4980543;28;20030;-87
2024/02/25 07:34:10;;;;;;;33.50;8.07;;;-0.80;99.90;;;;;;4980673;28;20553;-87
2024/02/25 07:36:35;;;;;;;20.85;7.25;;;-0.80;99.90;;;;;;5000025;28;20030;-88
2024/02/25 07:39:01;;;;;;;47.75;9.85;;;-0.80;99.90;;;;;;4986366;28;20049;-87
2024/02/25 07:41:27;;;;;;;34.33;8.43;;;-0.80;99.90;;;;;;4979487;28;20019;-87
2024/02/25 07:43:53;;;;;;;55.42;9.13;;;-0.80;99.90;;;;;;4960887;28;20370;-87
2024/02/25 07:46:21;;;;;;;203.68;12.68;;;-0.80;99.90;;;;;;4960780;28;20392;-88
2024/02/25 07:48:47;;;;;;;127.55;12.65;;;-0.90;99.90;;;;;;4960727;28;20033;-87
2024/02/25 07:51:12;;;;;;;51.55;8.65;;;-0.90;99.90;;;;;;4989615;28;20121;-88
2024/02/25 07:53:45;;;;;;;68.13;9.55;;;-0.90;99.90;;;;;;4979943;28;20449;-87
2024/02/25 07:56:20;;;;;;;76.15;8.80;;;-0.90;99.90;;;;;;4994301;28;20038;-86
2024/02/25 07:58:47;;;;;;;67.13;8.60;;;-0.80;99.90;;;;;;4978892;28;20026;-88
2024/02/25 08:01:14;;;;;;;52.80;9.30;;;-0.80;99.90;;;;;;4979886;28;20026;-86
2024/02/25 08:03:40;;;;;;;20.13;7.88;;;-0.80;99.90;;;;;;4996158;28;20111;-89
2024/02/25 08:06:06;;;;;;;30.55;8.02;;;-0.70;99.90;;;;;;4979153;28;20113;-88
2024/02/25 08:08:31;;;;;;;61.30;8.43;;;-0.70;99.90;;;;;;4979491;28;20037;-88
2024/02/25 08:10:58;;;;;;;34.45;8.50;;;-0.70;99.90;;;;;;4979977;28;20042;-88
2024/02/25 08:13:24;;;;;;;23.55;8.85;;;-0.70;99.90;;;;;;4962363;28;20030;-87
2024/02/25 08:15:49;;;;;;;29.67;8.93;;;-0.60;99.90;;;;;;4979002;28;20023;-88
2024/02/25 08:18:15;;;;;;;33.60;8.43;;;-0.60;99.90;;;;;;4995950;28;20472;-88
2024/02/25 08:20:41;;;;;;;20.02;8.52;;;-0.50;99.90;;;;;;4995664;28;20036;-88
2024/02/25 08:23:07;;;;;;;26.90;8.90;;;-0.50;99.90;;;;;;4977505;28;20464;-88
2024/02/25 08:25:33;;;;;;;19.20;8.88;;;-0.50;99.90;;;;;;4975070;28;20027;-88
2024/02/25 08:27:58;;;;;;;20.95;8.88;;;-0.40;99.90;;;;;;4977247;28;20027;-88
2024/02/25 08:30:24;;;;;;;24.30;9.07;;;-0.40;99.90;;;;;;4971903;28;20034;-88
2024/02/25 08:32:50;;;;;;;17.65;7.88;;;-0.30;99.90;;;;;;4978008;28;20033;-88
2024/02/25 08:35:16;;;;;;;24.23;8.80;;;-0.30;99.90;;;;;;4977702;28;20026;-87
2024/02/25 08:37:42;;;;;;;24.67;9.82;;;-0.30;99.90;;;;;;4995188;28;20014;-88
2024/02/25 08:40:08;;;;;;;34.63;12.25;;;-0.20;99.90;;;;;;4977471;28;20031;-88
2024/02/25 08:42:36;;;;;;;48.58;13.55;;;-0.20;99.90;;;;;;4993261;28;20030;-89
2024/02/25 08:45:03;;;;;;;34.45;11.50;;;-0.20;99.90;;;;;;4998458;28;20057;-89
2024/02/25 08:47:29;;;;;;;49.72;11.35;;;-0.10;99.90;;;;;;4979998;28;20501;-89
2024/02/25 08:49:57;;;;;;;30.95;10.38;;;-0.10;99.90;;;;;;4968171;28;20026;-91
2024/02/25 08:52:23;;;;;;;32.30;10.75;;;-0.10;99.90;;;;;;4973317;28;20212;-89
2024/02/25 08:54:48;;;;;;;34.40;11.32;;;-0.10;99.90;;;;;;4979863;28;20022;-89
2024/02/25 08:57:14;;;;;;;27.10;10.77;;;0.00;99.90;;;;;;4978032;28;20424;-90
2024/02/25 08:59:40;;;;;;;25.95;11.27;;;0.10;99.90;;;;;;4977541;28;20023;-89
2024/02/25 09:02:06;;;;;;;23.33;10.32;;;0.20;99.90;;;;;;4973910;28;20058;-88
2024/02/25 09:04:31;;;;;;;25.48;11.23;;;0.30;99.90;;;;;;4963956;28;20384;-88
2024/02/25 09:06:58;;;;;;;24.90;10.43;;;0.30;99.90;;;;;;4969757;28;20069;-88
2024/02/25 09:09:26;;;;;;;22.40;9.90;;;0.40;99.90;;;;;;4969072;28;20093;-89
2024/02/25 09:11:52;;;;;;;24.05;10.90;;;0.50;99.90;;;;;;4976913;28;20030;-88
2024/02/25 09:14:18;;;;;;;26.08;11.50;;;0.60;99.90;;;;;;4976267;28;20026;-90
2024/02/25 09:16:44;;;;;;;35.72;14.35;;;0.70;99.90;;;;;;4974405;28;20364;-90
2024/02/25 09:19:10;;;;;;;44.58;18.10;;;0.80;99.90;;;;;;4977549;28;20018;-90
2024/02/25 09:21:36;;;;;;;56.42;22.63;;;0.90;99.90;;;;;;4977565;28;20056;-90
2024/02/25 09:24:02;;;;;;;52.80;22.05;;;1.00;99.90;;;;;;4976612;28;20076;-89
2024/02/25 09:26:31;;;;;;;50.88;19.15;;;1.10;99.90;;;;;;4974230;28;20027;-89
2024/02/25 09:28:57;;;;;;;40.65;17.20;;;1.20;99.90;;;;;;4973755;28;20033;-89
2024/02/25 09:31:22;;;;;;;46.40;17.75;;;1.30;99.90;;;;;;4977591;28;20030;-88
2024/02/25 09:33:54;;;;;;;40.70;17.05;;;1.40;99.90;;;;;;4977355;28;20030;-88
2024/02/25 09:36:23;;;;;;;39.75;16.52;;;1.40;99.90;;;;;;4975132;28;20567;-90
2024/02/25 09:38:53;;;;;;;30.98;13.93;;;1.50;99.90;;;;;;4994412;28;20033;-91
2024/02/25 09:41:29;;;;;;;29.58;13.05;;;1.70;99.90;;;;;;4974295;28;20031;-89
2024/02/25 09:43:56;;;;;;;22.85;10.35;;;1.80;99.90;;;;;;4976070;28;20051;-89
2024/02/25 09:46:24;;;;;;;23.65;10.57;;;2.00;99.90;;;;;;4977907;28;20040;-89
2024/02/25 09:48:54;;;;;;;19.80;9.50;;;2.10;99.90;;;;;;4976306;28;20019;-89
2024/02/25 09:51:30;;;;;;;18.50;9.05;;;2.20;99.90;;;;;;4975818;28;20117;-88
2024/02/25 09:53:57;;;;;;;17.90;8.57;;;2.40;99.90;;;;;;4974422;28;20081;-89
2024/02/25 09:56:23;;;;;;;17.92;9.50;;;2.50;99.90;;;;;;4976510;28;20058;-89
2024/02/25 09:58:49;;;;;;;20.42;9.88;;;2.70;99.90;;;;;;4976122;28;20066;-89
2024/02/25 10:01:16;;;;;;;32.88;14.43;;;2.90;99.90;;;;;;4975387;28;20023;-90
2024/02/25 10:03:42;;;;;;;37.53;16.90;;;3.10;99.90;;;;;;4993346;28;20377;-89
2024/02/25 10:06:08;;;;;;;28.85;13.35;;;3.30;99.90;;;;;;4976412;28;20025;-90
2024/02/25 10:08:47;;;;;;;28.20;12.02;;;3.60;99.90;;;;;;4975567;28;20026;-90
2024/02/25 10:11:13;;;;;;;24.30;13.18;;;3.90;99.90;;;;;;4974846;28;20043;-89
2024/02/25 10:13:45;;;;;;;23.88;11.52;;;4.30;99.90;;;;;;4977243;28;20048;-89
2024/02/25 10:16:18;;;;;;;23.52;10.73;;;4.60;99.90;;;;;;4977071;28;20030;-90
2024/02/25 10:18:47;;;;;;;20.23;9.68;;;4.90;99.90;;;;;;4973957;28;20018;-88
2024/02/25 10:21:13;;;;;;;21.05;9.63;;;5.20;99.90;;;;;;4974500;28;20034;-90
2024/02/25 10:23:39;;;;;;;19.20;9.20;;;5.40;99.90;;;;;;4976716;28;20021;-90
2024/02/25 10:26:15;;;;;;;17.20;8.98;;;5.50;99.90;;;;;;4973927;28;20034;-89
2024/02/25 10:28:44;;;;;;;18.50;9.68;;;5.60;99.90;;;;;;4976099;28;20045;-89
2024/02/25 10:31:16;;;;;;;17.90;9.43;;;5.60;99.90;;;;;;4974475;28;20400;-90
2024/02/25 10:33:44;;;;;;;20.05;10.73;;;5.70;99.90;;;;;;4984022;28;20022;-89
2024/02/25 10:36:12;;;;;;;18.73;10.63;;;5.90;99.90;;;;;;4976246;28;20030;-88
2024/02/25 10:38:44;;;;;;;21.40;9.60;;;6.00;99.90;;;;;;4976640;28;20086;-91
2024/02/25 10:41:11;;;;;;;15.52;7.60;;;6.20;99.90;;;;;;4974682;28;20029;-88
2024/02/25 10:43:38;;;;;;;17.70;8.57;;;6.30;99.90;;;;;;4976661;28;20031;-89
2024/02/25 10:46:15;;;;;;;15.60;7.30;;;6.50;99.90;;;;;;4989673;28;20117;-89
2024/02/25 10:48:42;;;;;;;17.73;8.07;;;6.80;99.90;;;;;;4976316;28;20098;-90
2024/02/25 10:51:09;;;;;;;13.88;6.82;;;7.00;99.90;;;;;;4977118;28;20070;-89
2024/02/25 10:53:41;;;;;;;22.88;7.07;;;7.30;99.90;;;;;;4976070;28;20015;-89
2024/02/25 10:56:18;;;;;;;12.35;6.45;;;7.70;99.90;;;;;;4974255;28;20562;-88
2024/02/25 10:58:51;;;;;;;11.02;6.20;;;8.10;99.90;;;;;;4975698;28;20045;-89
2024/02/25 11:01:22;;;;;;;10.82;6.00;;;8.50;99.90;;;;;;4978373;28;20038;-89
2024/02/25 11:03:48;;;;;;;10.55;6.25;;;9.00;99.90;;;;;;4978249;28;20036;-89
2024/02/25 11:06:33;;;;;;;11.57;5.78;;;9.30;99.90;;;;;;4980411;28;20117;-89
2024/02/25 11:09:22;;;;;;;9.90;5.80;;;9.60;99.90;;;;;;4980661;28;20027;-90
2024/02/25 11:11:49;;;;;;;10.40;5.07;;;9.60;99.90;;;;;;4975924;28;20046;-89
2024/02/25 11:14:21;;;;;;;11.27;6.20;;;9.60;99.90;;;;;;4980589;28;20428;-89
2024/02/25 11:16:49;;;;;;;8.77;5.38;;;9.50;99.90;;;;;;4980429;28;20026;-88
2024/02/25 11:19:16;;;;;;;9.90;4.88;;;9.60;99.90;;;;;;4980139;28;20022;-89
2024/02/25 11:21:42;;;;;;;9.00;5.22;;;9.60;99.90;;;;;;4980072;28;20146;-89
2024/02/25 11:24:12;;;;;;;14.98;6.07;;;9.70;99.90;;;;;;4964345;28;20476;-89
2024/02/25 11:26:44;;;;;;;12.02;5.97;;;9.80;99.90;;;;;;4977648;28;20030;-89
2024/02/25 11:29:20;;;;;;;11.00;5.68;;;9.90;99.90;;;;;;4977008;28;20051;-90
2024/02/25 11:31:57;;;;;;;11.52;5.13;;;9.80;99.90;;;;;;4979434;28;20030;-89
2024/02/25 11:34:28;;;;;;;11.95;5.10;;;9.70;99.90;;;;;;4960725;28;20031;-90
2024/02/25 11:36:59;;;;;;;13.70;5.60;;;9.40;99.90;;;;;;4979715;28;20081;-89
2024/02/25 11:39:27;;;;;;;12.27;5.53;;;9.10;99.90;;;;;;4992838;28;20088;-89
2024/02/25 11:42:01;;;;;;;12.07;4.85;;;8.90;99.90;;;;;;4979833;28;20033;-88
2024/02/25 11:44:29;;;;;;;13.13;4.28;;;8.70;99.90;;;;;;4972725;28;20062;-88
2024/02/25 11:47:13;;;;;;;6.85;4.07;;;8.60;99.90;;;;;;4978196;28;20034;-89
2024/02/25 11:49:40;;;;;;;7.10;3.70;;;8.50;99.90;;;;;;4977135;28;20030;-89
2024/02/25 11:52:07;;;;;;;11.45;4.18;;;8.40;99.90;;;;;;4970352;28;20396;-89
2024/02/25 11:54:33;;;;;;;7.47;3.78;;;8.30;99.90;;;;;;4963175;28;20030;-91
2024/02/25 11:57:00;;;;;;;7.70;3.72;;;8.20;99.90;;;;;;4979232;28;20029;-89
2024/02/25 11:59:26;;;;;;;10.10;3.65;;;8.40;99.90;;;;;;4979266;28;20404;-89
2024/02/25 12:01:52;;;;;;;9.38;3.45;;;8.60;99.90;;;;;;4977525;28;20089;-90
2024/02/25 12:04:19;;;;;;;10.80;3.60;;;8.70;99.90;;;;;;4976795;28;20030;-89
2024/02/25 12:06:45;;;;;;;7.88;3.45;;;9.00;99.90;;;;;;4973789;28;20026;-89
2024/02/25 12:09:20;;;;;;;8.82;3.33;;;9.30;99.90;;;;;;4978954;28;20022;-89
2024/02/25 12:11:48;;;;;;;6.25;3.08;;;9.60;99.90;;;;;;4975438;28;20023;-89
2024/02/25 12:14:19;;;;;;;8.60;2.83;;;10.00;99.90;;;;;;4979158;28;20046;-89
2024/02/25 12:16:46;;;;;;;8.02;3.00;;;10.30;99.90;;;;;;4978096;28;20018;-89
2024/02/25 12:19:13;;;;;;;8.20;3.78;;;10.50;99.90;;;;;;4979519;28;20209;-89
2024/02/25 12:21:48;;;;;;;5.35;2.97;;;10.80;99.90;;;;;;4980125;28;20480;-89
2024/02/25 12:24:14;;;;;;;6.20;3.30;;;11.00;99.90;;;;;;4974949;28;20030;-89
2024/02/25 12:26:57;;;;;;;7.63;3.25;;;10.90;99.90;;;;;;4978131;28;20034;-88
2024/02/25 12:29:28;;;;;;;7.00;3.15;;;10.90;99.90;;;;;;4977598;28;20051;-89
2024/02/25 12:31:55;;;;;;;7.60;3.33;;;10.70;99.90;;;;;;4961180;28;20066;-87
2024/02/25 12:34:25;;;;;;;6.13;3.30;;;10.50;99.90;;;;;;4960967;28;20484;-89
2024/02/25 12:37:26;;;;;;;7.75;2.95;;;10.30;99.90;;;;;;4983972;28;20097;-89
2024/02/25 12:39:59;;;;;;;7.20;3.33;;;10.20;99.90;;;;;;4980495;28;20504;-89
2024/02/25 12:42:28;;;;;;;6.15;2.92;;;10.20;99.90;;;;;;4980861;28;20054;-90
2024/02/25 12:44:55;;;;;;;6.35;2.65;;;10.20;99.90;;;;;;4981162;28;20050;-89
2024/02/25 12:47:21;;;;;;;6.07;2.55;;;10.20;99.90;;;;;;4977673;28;20061;-90
2024/02/25 12:49:48;;;;;;;3.75;2.28;;;10.10;99.90;;;;;;4979078;28;20085;-89